sensor_id;sensor_type;location;lat;lon;timestamp;pressure;altitude;pressure_sealevel;temperature;humidity
71457;BME280;59263;48.160;11.752;2023-02-21T00:00:50;96337.47;;;4.87;100.00
71457;BME280;59263;48.160;11.752;2023-02-21T00:03:34;96316.25;;;4.71;100.00
71457;BME280;59263;48.160;11.752;2023-02-21T00:06:18;96322.25;;;4.57;100.00
71457;BME280;59263;48.160;11.752;2023-02-21T00:09:02;96319.22;;;4.50;100.00
71457;BME280;59263;48.160;11.752;2023-02-21T00:11:46;96317.03;;;4.58;100.00
71457;BME280;59263;48.160;11.752;2023-02-21T00:14:30;96302.47;;;4.45;100.00
71457;BME280;59263;48.160;11.752;2023-02-21T00:17:14;96319.88;;;4.54;100.00
71457;BME280;59263;48.160;11.752;2023-02-21T00:19:58;96320.81;;;4.53;100.00
71457;BME280;59263;48.160;11.752;2023-02-21T00:22:46;96323.78;;;4.59;100.00
71457;BME280;59263;48.160;11.752;2023-02-21T00:25:30;96288.69;;;4.19;100.00
71457;BME280;59263;48.160;11.752;2023-02-21T00:28:14;96316.97;;;4.17;100.00
71457;BME280;59263;48.160;11.752;2023-02-21T00:31:08;96292.56;;;3.97;100.00
71457;BME280;59263;48.160;11.752;2023-02-21T00:33:53;96321.72;;;4.09;100.00
71457;BME280;59263;48.160;11.752;2023-02-21T00:36:37;96307.34;;;3.92;100.00
71457;BME280;59263;48.160;11.752;2023-02-21T00:39:21;96301.41;;;3.92;100.00
71457;BME280;59263;48.160;11.752;2023-02-21T00:42:04;96312.13;;;3.98;100.00
71457;BME280;59263;48.160;11.752;2023-02-21T00:44:48;96265.72;;;3.74;100.00
71457;BME280;59263;48.160;11.752;2023-02-21T00:47:32;96284.66;;;3.72;100.00
71457;BME280;59263;48.160;11.752;2023-02-21T00:50:18;96327.19;;;3.88;100.00
71457;BME280;59263;48.160;11.752;2023-02-21T00:53:02;96286.44;;;3.55;100.00
71457;BME280;59263;48.160;11.752;2023-02-21T00:55:46;96325.69;;;3.70;100.00
71457;BME280;59263;48.160;11.752;2023-02-21T00:58:30;96313.28;;;3.48;100.00
71457;BME280;59263;48.160;11.752;2023-02-21T01:01:13;96284.28;;;3.19;100.00
71457;BME280;59263;48.160;11.752;2023-02-21T01:03:58;96333.47;;;3.38;100.00
71457;BME280;59263;48.160;11.752;2023-02-21T01:06:42;96308.75;;;3.23;100.00
71457;BME280;59263;48.160;11.752;2023-02-21T01:09:25;96291.63;;;3.09;100.00
71457;BME280;59263;48.160;11.752;2023-02-21T01:12:10;96313.22;;;3.20;100.00
71457;BME280;59263;48.160;11.752;2023-02-21T01:14:54;96279.69;;;2.94;100.00
71457;BME280;59263;48.160;11.752;2023-02-21T01:17:37;96313.88;;;3.07;100.00
71457;BME280;59263;48.160;11.752;2023-02-21T01:20:21;96299.06;;;2.98;100.00
71457;BME280;59263;48.160;11.752;2023-02-21T01:23:05;96307.66;;;2.97;100.00
71457;BME280;59263;48.160;11.752;2023-02-21T01:25:49;96279.91;;;2.75;100.00
71457;BME280;59263;48.160;11.752;2023-02-21T01:28:33;96286.56;;;2.78;100.00
71457;BME280;59263;48.160;11.752;2023-02-21T01:31:18;96315.50;;;2.94;100.00
71457;BME280;59263;48.160;11.752;2023-02-21T01:34:02;96295.47;;;2.86;100.00
71457;BME280;59263;48.160;11.752;2023-02-21T01:36:47;96283.28;;;2.76;100.00
71457;BME280;59263;48.160;11.752;2023-02-21T01:39:30;96300.75;;;2.83;100.00
71457;BME280;59263;48.160;11.752;2023-02-21T01:42:14;96286.97;;;2.70;100.00
71457;BME280;59263;48.160;11.752;2023-02-21T01:45:41;96264.75;;;2.56;100.00
71457;BME280;59263;48.160;11.752;2023-02-21T01:48:28;96288.69;;;2.70;100.00
71457;BME280;59263;48.160;11.752;2023-02-21T01:51:16;96265.72;;;2.54;100.00
71457;BME280;59263;48.160;11.752;2023-02-21T01:54:02;96283.75;;;2.66;100.00
71457;BME280;59263;48.160;11.752;2023-02-21T01:56:46;96270.19;;;2.50;100.00
71457;BME280;59263;48.160;11.752;2023-02-21T01:59:31;96283.28;;;2.60;100.00
71457;BME280;59263;48.160;11.752;2023-02-21T02:02:26;96284.59;;;2.51;100.00
71457;BME280;59263;48.160;11.752;2023-02-21T02:05:11;96271.00;;;2.35;100.00
71457;BME280;59263;48.160;11.752;2023-02-21T02:07:55;96282.59;;;2.25;100.00
71457;BME280;59263;48.160;11.752;2023-02-21T02:10:41;96269.72;;;2.10;100.00
71457;BME280;59263;48.160;11.752;2023-02-21T02:18:28;96269.47;;;1.99;100.00
71457;BME280;59263;48.160;11.752;2023-02-21T02:23:59;96272.00;;;1.99;100.00
71457;BME280;59263;48.160;11.752;2023-02-21T02:34:55;96266.34;;;1.94;100.00
71457;BME280;59263;48.160;11.752;2023-02-21T02:42:57;96239.53;;;1.69;100.00
71457;BME280;59263;48.160;11.752;2023-02-21T02:45:29;96254.78;;;1.71;100.00
71457;BME280;59263;48.160;11.752;2023-02-21T02:48:02;96218.94;;;1.57;100.00
71457;BME280;59263;48.160;11.752;2023-02-21T02:50:31;96246.06;;;1.75;100.00
71457;BME280;59263;48.160;11.752;2023-02-21T02:53:01;96244.03;;;1.82;100.00
71457;BME280;59263;48.160;11.752;2023-02-21T02:57:52;96204.47;;;1.57;100.00
71457;BME280;59263;48.160;11.752;2023-02-21T03:00:18;96236.81;;;1.73;100.00
71457;BME280;59263;48.160;11.752;2023-02-21T03:02:56;96247.06;;;1.88;100.00
71457;BME280;59263;48.160;11.752;2023-02-21T03:10:44;96224.28;;;2.01;100.00
71457;BME280;59263;48.160;11.752;2023-02-21T03:18:35;96243.25;;;2.60;100.00
71457;BME280;59263;48.160;11.752;2023-02-21T03:21:08;96226.91;;;2.63;100.00
71457;BME280;59263;48.160;11.752;2023-02-21T03:23:36;96237.59;;;2.70;100.00
71457;BME280;59263;48.160;11.752;2023-02-21T03:26:05;96207.72;;;2.56;100.00
71457;BME280;59263;48.160;11.752;2023-02-21T03:28:32;96217.28;;;2.68;100.00
71457;BME280;59263;48.160;11.752;2023-02-21T03:30:59;96212.66;;;2.75;100.00
71457;BME280;59263;48.160;11.752;2023-02-21T03:33:24;96244.66;;;2.96;100.00
71457;BME280;59263;48.160;11.752;2023-02-21T03:35:51;96227.56;;;2.82;100.00
71457;BME280;59263;48.160;11.752;2023-02-21T03:38:16;96215.81;;;2.94;100.00
71457;BME280;59263;48.160;11.752;2023-02-21T03:40:42;96198.44;;;2.85;100.00
71457;BME280;59263;48.160;11.752;2023-02-21T03:43:07;96203.41;;;3.02;100.00
71457;BME280;59263;48.160;11.752;2023-02-21T03:45:33;96240.44;;;3.25;100.00
71457;BME280;59263;48.160;11.752;2023-02-21T03:47:59;96231.22;;;3.23;100.00
71457;BME280;59263;48.160;11.752;2023-02-21T03:50:24;96207.97;;;3.11;100.00
71457;BME280;59263;48.160;11.752;2023-02-21T03:52:50;96238.97;;;3.21;100.00
71457;BME280;59263;48.160;11.752;2023-02-21T03:55:15;96190.75;;;2.85;100.00
71457;BME280;59263;48.160;11.752;2023-02-21T03:57:41;96233.91;;;3.05;100.00
71457;BME280;59263;48.160;11.752;2023-02-21T04:00:07;96233.75;;;3.08;100.00
71457;BME280;59263;48.160;11.752;2023-02-21T04:02:33;96195.22;;;2.81;100.00
71457;BME280;59263;48.160;11.752;2023-02-21T04:04:58;96205.16;;;3.02;100.00
71457;BME280;59263;48.160;11.752;2023-02-21T04:07:24;96224.81;;;3.15;100.00
71457;BME280;59263;48.160;11.752;2023-02-21T04:09:50;96227.50;;;2.98;100.00
71457;BME280;59263;48.160;11.752;2023-02-21T04:12:15;96233.44;;;2.99;100.00
71457;BME280;59263;48.160;11.752;2023-02-21T04:14:41;96198.53;;;2.83;100.00
71457;BME280;59263;48.160;11.752;2023-02-21T04:17:06;96224.63;;;3.19;100.00
71457;BME280;59263;48.160;11.752;2023-02-21T04:19:32;96213.56;;;3.18;100.00
71457;BME280;59263;48.160;11.752;2023-02-21T04:21:57;96217.88;;;3.18;100.00
71457;BME280;59263;48.160;11.752;2023-02-21T04:24:22;96208.47;;;3.18;100.00
71457;BME280;59263;48.160;11.752;2023-02-21T04:26:48;96231.22;;;3.23;100.00
71457;BME280;59263;48.160;11.752;2023-02-21T04:29:13;96208.19;;;3.08;100.00
71457;BME280;59263;48.160;11.752;2023-02-21T04:31:39;96220.22;;;3.06;100.00
71457;BME280;59263;48.160;11.752;2023-02-21T04:34:04;96224.00;;;3.29;100.00
71457;BME280;59263;48.160;11.752;2023-02-21T04:36:29;96215.19;;;3.35;100.00
71457;BME280;59263;48.160;11.752;2023-02-21T04:38:55;96214.44;;;3.47;100.00
71457;BME280;59263;48.160;11.752;2023-02-21T04:41:21;96206.78;;;3.47;100.00
71457;BME280;59263;48.160;11.752;2023-02-21T04:43:46;96217.38;;;3.55;100.00
71457;BME280;59263;48.160;11.752;2023-02-21T04:46:13;96205.50;;;3.54;100.00
71457;BME280;59263;48.160;11.752;2023-02-21T04:48:42;96206.63;;;3.64;100.00
71457;BME280;59263;48.160;11.752;2023-02-21T04:51:09;96192.34;;;3.46;100.00
71457;BME280;59263;48.160;11.752;2023-02-21T04:53:34;96183.28;;;3.40;100.00
71457;BME280;59263;48.160;11.752;2023-02-21T04:55:59;96189.78;;;3.32;100.00
71457;BME280;59263;48.160;11.752;2023-02-21T04:58:25;96186.66;;;3.41;100.00
71457;BME280;59263;48.160;11.752;2023-02-21T05:00:50;96191.72;;;3.43;100.00
71457;BME280;59263;48.160;11.752;2023-02-21T05:03:15;96205.69;;;3.51;100.00
71457;BME280;59263;48.160;11.752;2023-02-21T05:05:42;96181.47;;;3.43;100.00
71457;BME280;59263;48.160;11.752;2023-02-21T05:08:08;96203.06;;;3.53;100.00
71457;BME280;59263;48.160;11.752;2023-02-21T05:10:33;96176.44;;;3.27;100.00
71457;BME280;59263;48.160;11.752;2023-02-21T05:12:58;96175.97;;;3.20;100.00
71457;BME280;59263;48.160;11.752;2023-02-21T05:15:24;96179.72;;;3.29;100.00
71457;BME280;59263;48.160;11.752;2023-02-21T05:17:49;96180.63;;;3.28;100.00
71457;BME280;59263;48.160;11.752;2023-02-21T05:20:17;96192.69;;;3.26;100.00
71457;BME280;59263;48.160;11.752;2023-02-21T05:22:42;96163.38;;;3.17;100.00
71457;BME280;59263;48.160;11.752;2023-02-21T05:27:40;96171.34;;;3.27;100.00
71457;BME280;59263;48.160;11.752;2023-02-21T05:30:06;96161.97;;;3.11;100.00
71457;BME280;59263;48.160;11.752;2023-02-21T05:32:32;96172.84;;;3.15;100.00
71457;BME280;59263;48.160;11.752;2023-02-21T05:34:57;96161.34;;;3.08;100.00
71457;BME280;59263;48.160;11.752;2023-02-21T05:37:23;96165.09;;;3.17;100.00
71457;BME280;59263;48.160;11.752;2023-02-21T05:39:48;96163.72;;;3.25;100.00
71457;BME280;59263;48.160;11.752;2023-02-21T05:42:13;96171.34;;;3.27;100.00
71457;BME280;59263;48.160;11.752;2023-02-21T05:44:39;96168.03;;;3.25;100.00
71457;BME280;59263;48.160;11.752;2023-02-21T05:47:04;96162.91;;;3.25;100.00
71457;BME280;59263;48.160;11.752;2023-02-21T05:49:32;96145.38;;;3.04;100.00
71457;BME280;59263;48.160;11.752;2023-02-21T05:51:57;96180.28;;;3.20;100.00
71457;BME280;59263;48.160;11.752;2023-02-21T05:54:23;96196.69;;;3.15;100.00
71457;BME280;59263;48.160;11.752;2023-02-21T05:56:49;96182.88;;;3.04;100.00
71457;BME280;59263;48.160;11.752;2023-02-21T05:59:17;96180.25;;;3.05;100.00
71457;BME280;59263;48.160;11.752;2023-02-21T06:01:44;96177.31;;;2.97;100.00
71457;BME280;59263;48.160;11.752;2023-02-21T06:04:09;96195.03;;;3.14;100.00
71457;BME280;59263;48.160;11.752;2023-02-21T06:06:35;96167.72;;;3.01;100.00
71457;BME280;59263;48.160;11.752;2023-02-21T06:09:01;96171.66;;;3.06;100.00
71457;BME280;59263;48.160;11.752;2023-02-21T06:11:30;96197.41;;;3.18;100.00
71457;BME280;59263;48.160;11.752;2023-02-21T06:13:58;96198.31;;;3.02;100.00
71457;BME280;59263;48.160;11.752;2023-02-21T06:16:24;96203.31;;;2.89;100.00
71457;BME280;59263;48.160;11.752;2023-02-21T06:18:53;96198.47;;;2.69;100.00
71457;BME280;59263;48.160;11.752;2023-02-21T06:21:19;96208.34;;;2.59;100.00
71457;BME280;59263;48.160;11.752;2023-02-21T06:23:45;96223.94;;;2.55;100.00
71457;BME280;59263;48.160;11.752;2023-02-21T06:26:11;96229.63;;;2.44;100.00
71457;BME280;59263;48.160;11.752;2023-02-21T06:28:37;96216.22;;;2.25;100.00
71457;BME280;59263;48.160;11.752;2023-02-21T06:31:03;96231.38;;;2.28;100.00
71457;BME280;59263;48.160;11.752;2023-02-21T06:33:29;96205.19;;;2.08;100.00
71457;BME280;59263;48.160;11.752;2023-02-21T06:35:54;96200.25;;;2.05;100.00
71457;BME280;59263;48.160;11.752;2023-02-21T06:38:20;96245.38;;;2.21;100.00
71457;BME280;59263;48.160;11.752;2023-02-21T06:40:46;96215.56;;;2.05;100.00
71457;BME280;59263;48.160;11.752;2023-02-21T06:43:11;96223.06;;;2.08;100.00
71457;BME280;59263;48.160;11.752;2023-02-21T06:45:36;96214.09;;;2.17;100.00
71457;BME280;59263;48.160;11.752;2023-02-21T06:48:02;96218.38;;;2.16;100.00
71457;BME280;59263;48.160;11.752;2023-02-21T06:50:27;96241.19;;;2.35;100.00
71457;BME280;59263;48.160;11.752;2023-02-21T06:52:53;96226.13;;;2.31;100.00
71457;BME280;59263;48.160;11.752;2023-02-21T06:55:22;96238.97;;;2.45;100.00
71457;BME280;59263;48.160;11.752;2023-02-21T06:57:48;96251.31;;;2.53;100.00
71457;BME280;59263;48.160;11.752;2023-02-21T07:00:15;96237.78;;;2.51;100.00
71457;BME280;59263;48.160;11.752;2023-02-21T07:02:41;96251.19;;;2.70;100.00
71457;BME280;59263;48.160;11.752;2023-02-21T07:05:07;96234.66;;;2.61;100.00
71457;BME280;59263;48.160;11.752;2023-02-21T07:07:32;96223.75;;;2.74;100.00
71457;BME280;59263;48.160;11.752;2023-02-21T07:09:57;96251.44;;;2.97;100.00
71457;BME280;59263;48.160;11.752;2023-02-21T07:12:23;96238.31;;;3.18;100.00
71457;BME280;59263;48.160;11.752;2023-02-21T07:14:48;96215.41;;;3.16;100.00
71457;BME280;59263;48.160;11.752;2023-02-21T07:17:13;96225.44;;;3.49;100.00
71457;BME280;59263;48.160;11.752;2023-02-21T07:19:39;96252.22;;;3.86;100.00
71457;BME280;59263;48.160;11.752;2023-02-21T07:22:06;96249.84;;;3.98;100.00
71457;BME280;59263;48.160;11.752;2023-02-21T07:24:32;96236.41;;;4.08;100.00
71457;BME280;59263;48.160;11.752;2023-02-21T07:26:57;96234.38;;;4.28;100.00
71457;BME280;59263;48.160;11.752;2023-02-21T07:29:23;96245.84;;;4.49;100.00
71457;BME280;59263;48.160;11.752;2023-02-21T07:31:49;96248.47;;;4.62;100.00
71457;BME280;59263;48.160;11.752;2023-02-21T07:34:14;96236.09;;;4.69;100.00
71457;BME280;59263;48.160;11.752;2023-02-21T07:36:39;96232.78;;;4.67;100.00
71457;BME280;59263;48.160;11.752;2023-02-21T07:39:05;96232.22;;;4.76;100.00
71457;BME280;59263;48.160;11.752;2023-02-21T07:41:30;96206.78;;;4.73;100.00
71457;BME280;59263;48.160;11.752;2023-02-21T07:43:56;96226.69;;;4.82;100.00
71457;BME280;59263;48.160;11.752;2023-02-21T07:46:26;96205.41;;;4.67;100.00
71457;BME280;59263;48.160;11.752;2023-02-21T07:48:52;96252.81;;;5.01;100.00
71457;BME280;59263;48.160;11.752;2023-02-21T07:51:19;96230.00;;;4.97;100.00
71457;BME280;59263;48.160;11.752;2023-02-21T07:53:45;96264.78;;;5.28;100.00
71457;BME280;59263;48.160;11.752;2023-02-21T07:56:10;96240.56;;;5.19;100.00
71457;BME280;59263;48.160;11.752;2023-02-21T07:58:36;96268.91;;;5.43;100.00
71457;BME280;59263;48.160;11.752;2023-02-21T08:01:02;96219.13;;;5.20;100.00
71457;BME280;59263;48.160;11.752;2023-02-21T08:03:28;96231.44;;;5.41;100.00
71457;BME280;59263;48.160;11.752;2023-02-21T08:05:54;96238.97;;;5.56;100.00
71457;BME280;59263;48.160;11.752;2023-02-21T08:08:19;96228.28;;;5.63;100.00
71457;BME280;59263;48.160;11.752;2023-02-21T08:10:44;96226.84;;;5.71;100.00
71457;BME280;59263;48.160;11.752;2023-02-21T08:13:10;96265.47;;;6.08;100.00
71457;BME280;59263;48.160;11.752;2023-02-21T08:15:35;96238.56;;;6.01;100.00
71457;BME280;59263;48.160;11.752;2023-02-21T08:18:00;96235.66;;;6.18;100.00
71457;BME280;59263;48.160;11.752;2023-02-21T08:20:26;96264.81;;;6.43;100.00
71457;BME280;59263;48.160;11.752;2023-02-21T08:22:51;96243.97;;;6.59;100.00
71457;BME280;59263;48.160;11.752;2023-02-21T08:25:16;96255.75;;;6.74;100.00
71457;BME280;59263;48.160;11.752;2023-02-21T08:27:42;96244.88;;;6.94;100.00
71457;BME280;59263;48.160;11.752;2023-02-21T08:30:13;96245.63;;;7.08;100.00
71457;BME280;59263;48.160;11.752;2023-02-21T08:32:39;96256.69;;;7.21;100.00
71457;BME280;59263;48.160;11.752;2023-02-21T08:35:05;96234.69;;;7.17;100.00
71457;BME280;59263;48.160;11.752;2023-02-21T08:37:32;96231.53;;;7.24;100.00
71457;BME280;59263;48.160;11.752;2023-02-21T08:40:00;96266.13;;;7.56;100.00
71457;BME280;59263;48.160;11.752;2023-02-21T08:42:25;96252.09;;;7.60;100.00
71457;BME280;59263;48.160;11.752;2023-02-21T08:44:51;96257.78;;;7.76;100.00
71457;BME280;59263;48.160;11.752;2023-02-21T08:47:17;96236.47;;;7.85;100.00
71457;BME280;59263;48.160;11.752;2023-02-21T08:49:43;96239.25;;;7.93;100.00
71457;BME280;59263;48.160;11.752;2023-02-21T08:52:09;96236.38;;;8.09;100.00
71457;BME280;59263;48.160;11.752;2023-02-21T08:54:35;96232.47;;;8.15;100.00
71457;BME280;59263;48.160;11.752;2023-02-21T08:57:01;96242.09;;;8.24;100.00
71457;BME280;59263;48.160;11.752;2023-02-21T08:59:26;96236.44;;;8.30;100.00
71457;BME280;59263;48.160;11.752;2023-02-21T09:01:54;96248.66;;;8.51;100.00
71457;BME280;59263;48.160;11.752;2023-02-21T09:04:19;96249.59;;;8.61;100.00
71457;BME280;59263;48.160;11.752;2023-02-21T09:06:45;96231.28;;;8.53;100.00
71457;BME280;59263;48.160;11.752;2023-02-21T09:09:10;96230.34;;;8.65;100.00
71457;BME280;59263;48.160;11.752;2023-02-21T09:11:35;96246.59;;;8.88;100.00
71457;BME280;59263;48.160;11.752;2023-02-21T09:14:01;96228.03;;;8.94;100.00
71457;BME280;59263;48.160;11.752;2023-02-21T09:16:30;96239.34;;;9.14;100.00
71457;BME280;59263;48.160;11.752;2023-02-21T09:18:58;96222.41;;;9.21;100.00
71457;BME280;59263;48.160;11.752;2023-02-21T09:21:25;96243.53;;;9.47;100.00
71457;BME280;59263;48.160;11.752;2023-02-21T09:23:54;96237.03;;;9.53;100.00
71457;BME280;59263;48.160;11.752;2023-02-21T09:26:21;96250.41;;;9.58;100.00
71457;BME280;59263;48.160;11.752;2023-02-21T09:28:50;96237.88;;;9.53;100.00
71457;BME280;59263;48.160;11.752;2023-02-21T09:31:16;96225.94;;;9.62;100.00
71457;BME280;59263;48.160;11.752;2023-02-21T09:33:43;96225.16;;;9.71;100.00
71457;BME280;59263;48.160;11.752;2023-02-21T09:36:09;96210.38;;;9.73;100.00
71457;BME280;59263;48.160;11.752;2023-02-21T09:38:35;96225.81;;;9.84;100.00
71457;BME280;59263;48.160;11.752;2023-02-21T09:41:03;96224.44;;;9.90;100.00
71457;BME280;59263;48.160;11.752;2023-02-21T09:43:38;96223.94;;;9.96;100.00
71457;BME280;59263;48.160;11.752;2023-02-21T09:46:30;96208.84;;;9.91;100.00
71457;BME280;59263;48.160;11.752;2023-02-21T09:48:58;96218.59;;;10.18;100.00
71457;BME280;59263;48.160;11.752;2023-02-21T09:51:23;96233.66;;;10.34;100.00
71457;BME280;59263;48.160;11.752;2023-02-21T10:20:59;96185.28;;;10.85;100.00
71457;BME280;59263;48.160;11.752;2023-02-21T10:23:42;96229.16;;;11.06;100.00
71457;BME280;59263;48.160;11.752;2023-02-21T10:26:13;96200.81;;;10.95;100.00
71457;BME280;59263;48.160;11.752;2023-02-21T10:28:40;96215.41;;;11.05;100.00
71457;BME280;59263;48.160;11.752;2023-02-21T10:31:28;96241.41;;;11.23;100.00
71457;BME280;59263;48.160;11.752;2023-02-21T10:33:55;96223.03;;;11.07;100.00
71457;BME280;59263;48.160;11.752;2023-02-21T10:36:24;96249.88;;;11.25;100.00
71457;BME280;59263;48.160;11.752;2023-02-21T10:39:05;96227.38;;;11.26;100.00
71457;BME280;59263;48.160;11.752;2023-02-21T10:41:38;96200.81;;;11.24;100.00
71457;BME280;59263;48.160;11.752;2023-02-21T10:44:18;96222.88;;;11.37;100.00
71457;BME280;59263;48.160;11.752;2023-02-21T10:49:32;96182.53;;;11.15;100.00
71457;BME280;59263;48.160;11.752;2023-02-21T10:54:32;96194.50;;;11.55;100.00
71457;BME280;59263;48.160;11.752;2023-02-21T10:57:18;96169.66;;;11.53;97.08
71457;BME280;59263;48.160;11.752;2023-02-21T10:59:47;96155.59;;;11.65;93.89
71457;BME280;59263;48.160;11.752;2023-02-21T11:02:36;96202.06;;;11.96;94.17
71457;BME280;59263;48.160;11.752;2023-02-21T11:05:34;96167.41;;;11.77;91.75
71457;BME280;59263;48.160;11.752;2023-02-21T11:08:09;96208.94;;;12.15;100.00
71457;BME280;59263;48.160;11.752;2023-02-21T11:18:30;96193.72;;;12.29;96.09
71457;BME280;59263;48.160;11.752;2023-02-21T11:21:15;96181.47;;;12.22;89.54
71457;BME280;59263;48.160;11.752;2023-02-21T11:31:42;96160.59;;;12.41;94.21
71457;BME280;59263;48.160;11.752;2023-02-21T11:34:11;96145.25;;;12.48;85.77
71457;BME280;59263;48.160;11.752;2023-02-21T11:36:43;96145.50;;;12.54;87.33
71457;BME280;59263;48.160;11.752;2023-02-21T11:39:23;96176.75;;;12.80;84.36
71457;BME280;59263;48.160;11.752;2023-02-21T11:47:16;96110.84;;;12.46;88.32
71457;BME280;59263;48.160;11.752;2023-02-21T11:50:09;96147.56;;;12.87;81.17
71457;BME280;59263;48.160;11.752;2023-02-21T11:53:13;96142.53;;;12.85;84.29
71457;BME280;59263;48.160;11.752;2023-02-21T11:55:51;96088.28;;;12.64;85.76
71457;BME280;59263;48.160;11.752;2023-02-21T11:58:31;96103.59;;;12.67;78.26
71457;BME280;59263;48.160;11.752;2023-02-21T12:01:15;96098.91;;;12.71;81.91
71457;BME280;59263;48.160;11.752;2023-02-21T12:09:37;96078.59;;;13.10;83.09
71457;BME280;59263;48.160;11.752;2023-02-21T12:12:22;96061.78;;;13.22;78.21
71457;BME280;59263;48.160;11.752;2023-02-21T12:15:15;96098.00;;;13.42;73.45
71457;BME280;59263;48.160;11.752;2023-02-21T12:18:03;96053.53;;;13.01;73.94
71457;BME280;59263;48.160;11.752;2023-02-21T12:23:47;96105.75;;;13.34;80.72
71457;BME280;59263;48.160;11.752;2023-02-21T12:26:33;96055.84;;;13.30;74.96
71457;BME280;59263;48.160;11.752;2023-02-21T12:32:23;96092.13;;;13.66;76.95
71457;BME280;59263;48.160;11.752;2023-02-21T12:37:57;96040.91;;;13.58;78.68
71457;BME280;59263;48.160;11.752;2023-02-21T12:41:19;96073.56;;;13.95;74.39
71457;BME280;59263;48.160;11.752;2023-02-21T12:47:03;96060.22;;;13.98;74.19
71457;BME280;59263;48.160;11.752;2023-02-21T12:49:59;96064.31;;;14.09;73.13
71457;BME280;59263;48.160;11.752;2023-02-21T12:55:31;96012.34;;;13.83;79.50
71457;BME280;59263;48.160;11.752;2023-02-21T12:58:22;96044.31;;;14.09;72.63
71457;BME280;59263;48.160;11.752;2023-02-21T13:01:03;96027.06;;;14.08;69.84
71457;BME280;59263;48.160;11.752;2023-02-21T13:06:35;96015.34;;;14.04;73.00
71457;BME280;59263;48.160;11.752;2023-02-21T13:11:54;96010.50;;;14.17;73.54
71457;BME280;59263;48.160;11.752;2023-02-21T13:14:27;95996.38;;;14.28;74.12
71457;BME280;59263;48.160;11.752;2023-02-21T13:16:56;95990.03;;;14.39;68.71
71457;BME280;59263;48.160;11.752;2023-02-21T13:19:25;96007.28;;;14.89;64.83
71457;BME280;59263;48.160;11.752;2023-02-21T13:22:08;95975.06;;;14.73;68.81
71457;BME280;59263;48.160;11.752;2023-02-21T13:27:53;95998.50;;;14.82;68.74
71457;BME280;59263;48.160;11.752;2023-02-21T13:30:37;95972.63;;;14.56;68.38
71457;BME280;59263;48.160;11.752;2023-02-21T13:33:22;95988.72;;;14.92;79.43
71457;BME280;59263;48.160;11.752;2023-02-21T13:35:49;95982.94;;;15.21;64.05
71457;BME280;59263;48.160;11.752;2023-02-21T13:38:20;95977.75;;;15.21;67.62
71457;BME280;59263;48.160;11.752;2023-02-21T13:41:07;95955.44;;;15.10;67.76
71457;BME280;59263;48.160;11.752;2023-02-21T13:43:50;95980.81;;;15.16;64.79
71457;BME280;59263;48.160;11.752;2023-02-21T14:11:42;95900.84;;;14.37;66.32
71457;BME280;59263;48.160;11.752;2023-02-21T14:13:50;95948.00;;;14.83;67.60
71457;BME280;59263;48.160;11.752;2023-02-21T14:16:17;95942.66;;;15.32;67.92
71457;BME280;59263;48.160;11.752;2023-02-21T14:18:57;95933.16;;;15.78;62.99
71457;BME280;59263;48.160;11.752;2023-02-21T14:29:12;95902.97;;;20.14;41.76
71457;BME280;59263;48.160;11.752;2023-02-21T14:31:48;95901.78;;;21.55;39.58
71457;BME280;59263;48.160;11.752;2023-02-21T14:45:44;95872.53;;;21.18;37.33
71457;BME280;59263;48.160;11.752;2023-02-21T14:48:42;95889.38;;;21.62;36.94
71457;BME280;59263;48.160;11.752;2023-02-21T14:57:36;95881.53;;;20.11;39.01
71457;BME280;59263;48.160;11.752;2023-02-21T15:06:03;95865.53;;;18.55;44.80
71457;BME280;59263;48.160;11.752;2023-02-21T15:08:42;95842.88;;;17.91;46.30
71457;BME280;59263;48.160;11.752;2023-02-21T15:14:31;95872.59;;;17.47;48.55
71457;BME280;59263;48.160;11.752;2023-02-21T15:17:09;95859.84;;;17.23;47.44
71457;BME280;59263;48.160;11.752;2023-02-21T15:19:38;95824.75;;;16.81;49.67
71457;BME280;59263;48.160;11.752;2023-02-21T15:22:22;95854.38;;;16.88;51.11
71457;BME280;59263;48.160;11.752;2023-02-21T15:27:50;95816.88;;;15.84;54.10
71457;BME280;59263;48.160;11.752;2023-02-21T15:30:38;95812.66;;;15.29;58.90
71457;BME280;59263;48.160;11.752;2023-02-21T15:33:05;95867.94;;;15.47;61.18
71457;BME280;59263;48.160;11.752;2023-02-21T15:38:03;95844.28;;;15.80;60.06
71457;BME280;59263;48.160;11.752;2023-02-21T15:40:30;95861.34;;;16.05;58.04
71457;BME280;59263;48.160;11.752;2023-02-21T15:58:26;95814.94;;;14.53;68.51
71457;BME280;59263;48.160;11.752;2023-02-21T16:01:04;95849.13;;;14.34;73.00
71457;BME280;59263;48.160;11.752;2023-02-21T16:03:44;95843.81;;;13.94;78.38
71457;BME280;59263;48.160;11.752;2023-02-21T16:06:26;95829.13;;;13.52;85.73
71457;BME280;59263;48.160;11.752;2023-02-21T16:11:42;95845.72;;;13.01;100.00
71457;BME280;59263;48.160;11.752;2023-02-21T16:19:39;95846.06;;;12.38;100.00
71457;BME280;59263;48.160;11.752;2023-02-21T16:22:31;95839.31;;;12.19;100.00
71457;BME280;59263;48.160;11.752;2023-02-21T16:27:37;95851.00;;;11.97;100.00
71457;BME280;59263;48.160;11.752;2023-02-21T16:30:04;95843.81;;;11.73;100.00
71457;BME280;59263;48.160;11.752;2023-02-21T16:32:30;95853.66;;;11.69;100.00
71457;BME280;59263;48.160;11.752;2023-02-21T16:34:56;95847.50;;;11.52;100.00
71457;BME280;59263;48.160;11.752;2023-02-21T16:37:23;95831.31;;;11.32;100.00
71457;BME280;59263;48.160;11.752;2023-02-21T16:39:49;95852.03;;;11.32;100.00
71457;BME280;59263;48.160;11.752;2023-02-21T16:42:15;95828.91;;;11.03;100.00
71457;BME280;59263;48.160;11.752;2023-02-21T16:44:43;95845.63;;;11.09;100.00
71457;BME280;59263;48.160;11.752;2023-02-21T16:47:13;95834.44;;;10.90;100.00
71457;BME280;59263;48.160;11.752;2023-02-21T16:49:39;95838.88;;;10.71;100.00